sensor_id;sensor_type;location;lat;lon;timestamp;pressure;altitude;pressure_sealevel;temperature;humidity
21182;BME280;10749;46.296;7.524;2023-03-14T00:00:53;93926.13;;;11.82;48.13
21182;BME280;10749;46.296;7.524;2023-03-14T00:03:18;93928.91;;;12.00;47.17
21182;BME280;10749;46.296;7.524;2023-03-14T00:05:44;93934.72;;;12.29;46.30
21182;BME280;10749;46.296;7.524;2023-03-14T00:08:09;93929.59;;;12.27;46.27
21182;BME280;10749;46.296;7.524;2023-03-14T00:10:36;93940.63;;;11.73;47.59
21182;BME280;10749;46.296;7.524;2023-03-14T00:13:02;93943.91;;;11.49;47.35
21182;BME280;10749;46.296;7.524;2023-03-14T00:15:27;93963.47;;;11.48;47.93
21182;BME280;10749;46.296;7.524;2023-03-14T00:17:52;93990.81;;;11.29;48.25
21182;BME280;10749;46.296;7.524;2023-03-14T00:20:17;94001.78;;;11.52;47.19
21182;BME280;10749;46.296;7.524;2023-03-14T00:22:43;93996.91;;;11.75;47.31
21182;BME280;10749;46.296;7.524;2023-03-14T00:25:09;94001.72;;;11.98;46.62
21182;BME280;10749;46.296;7.524;2023-03-14T00:27:35;94007.38;;;12.21;46.04
21182;BME280;10749;46.296;7.524;2023-03-14T00:30:02;94014.63;;;11.88;46.64
21182;BME280;10749;46.296;7.524;2023-03-14T00:32:27;94012.41;;;11.72;47.28
21182;BME280;10749;46.296;7.524;2023-03-14T00:34:53;93979.94;;;11.89;46.04
21182;BME280;10749;46.296;7.524;2023-03-14T00:37:18;93973.78;;;12.02;45.42
21182;BME280;10749;46.296;7.524;2023-03-14T00:39:44;93962.97;;;11.97;44.85
21182;BME280;10749;46.296;7.524;2023-03-14T00:42:09;93936.00;;;12.07;45.01
21182;BME280;10749;46.296;7.524;2023-03-14T00:44:34;93943.38;;;12.05;44.88
21182;BME280;10749;46.296;7.524;2023-03-14T00:47:00;93947.25;;;12.09;45.36
21182;BME280;10749;46.296;7.524;2023-03-14T00:49:25;93942.81;;;11.96;45.39
21182;BME280;10749;46.296;7.524;2023-03-14T00:51:51;93945.28;;;11.78;45.27
21182;BME280;10749;46.296;7.524;2023-03-14T00:54:17;93961.41;;;11.76;45.25
21182;BME280;10749;46.296;7.524;2023-03-14T00:56:43;93984.63;;;11.87;45.69
21182;BME280;10749;46.296;7.524;2023-03-14T00:59:08;93987.31;;;11.74;45.94
21182;BME280;10749;46.296;7.524;2023-03-14T01:01:33;93984.88;;;11.53;46.60
21182;BME280;10749;46.296;7.524;2023-03-14T01:03:59;93994.66;;;11.52;46.33
21182;BME280;10749;46.296;7.524;2023-03-14T01:06:26;93998.31;;;11.19;47.42
21182;BME280;10749;46.296;7.524;2023-03-14T01:08:53;93986.72;;;11.39;46.99
21182;BME280;10749;46.296;7.524;2023-03-14T01:11:24;93976.91;;;11.53;47.26
21182;BME280;10749;46.296;7.524;2023-03-14T01:13:51;93964.88;;;11.57;46.78
21182;BME280;10749;46.296;7.524;2023-03-14T01:16:17;93963.44;;;11.61;46.65
21182;BME280;10749;46.296;7.524;2023-03-14T01:18:44;93968.94;;;11.73;46.52
21182;BME280;10749;46.296;7.524;2023-03-14T01:21:23;93963.84;;;11.78;46.62
21182;BME280;10749;46.296;7.524;2023-03-14T01:23:50;93949.78;;;11.77;46.89
21182;BME280;10749;46.296;7.524;2023-03-14T01:26:18;93938.34;;;11.70;46.56
21182;BME280;10749;46.296;7.524;2023-03-14T01:28:44;93930.00;;;11.67;45.95
21182;BME280;10749;46.296;7.524;2023-03-14T01:31:11;93932.06;;;11.58;46.61
21182;BME280;10749;46.296;7.524;2023-03-14T01:33:37;93930.25;;;11.52;46.48
21182;BME280;10749;46.296;7.524;2023-03-14T01:36:03;93923.34;;;11.38;46.71
21182;BME280;10749;46.296;7.524;2023-03-14T01:38:30;93916.84;;;11.27;46.69
21182;BME280;10749;46.296;7.524;2023-03-14T01:40:55;93905.44;;;11.20;46.87
21182;BME280;10749;46.296;7.524;2023-03-14T01:43:21;93903.63;;;11.07;46.88
21182;BME280;10749;46.296;7.524;2023-03-14T01:51:07;93845.63;;;10.80;47.37
21182;BME280;10749;46.296;7.524;2023-03-14T01:53:34;93834.22;;;10.79;47.47
21182;BME280;10749;46.296;7.524;2023-03-14T01:56:00;93835.81;;;10.87;47.66
21182;BME280;10749;46.296;7.524;2023-03-14T01:58:27;93838.66;;;10.98;47.57
21182;BME280;10749;46.296;7.524;2023-03-14T02:00:57;93842.09;;;11.12;47.41
21182;BME280;10749;46.296;7.524;2023-03-14T02:03:24;93847.59;;;11.10;47.61
21182;BME280;10749;46.296;7.524;2023-03-14T02:05:54;93837.44;;;11.07;47.65
21182;BME280;10749;46.296;7.524;2023-03-14T02:08:22;93844.34;;;11.08;47.72
21182;BME280;10749;46.296;7.524;2023-03-14T02:10:49;93839.03;;;11.22;47.61
21182;BME280;10749;46.296;7.524;2023-03-14T02:13:17;93833.28;;;11.31;47.67
21182;BME280;10749;46.296;7.524;2023-03-14T02:15:44;93826.16;;;11.32;47.53
21182;BME280;10749;46.296;7.524;2023-03-14T02:18:10;93828.22;;;11.30;47.35
21182;BME280;10749;46.296;7.524;2023-03-14T02:21:00;93806.81;;;11.31;47.43
21182;BME280;10749;46.296;7.524;2023-03-14T02:26:21;93780.78;;;11.15;46.95
21182;BME280;10749;46.296;7.524;2023-03-14T02:28:48;93773.25;;;11.12;46.96
21182;BME280;10749;46.296;7.524;2023-03-14T02:31:15;93772.63;;;11.17;46.99
21182;BME280;10749;46.296;7.524;2023-03-14T02:33:40;93775.88;;;11.19;47.18
21182;BME280;10749;46.296;7.524;2023-03-14T02:36:09;93789.13;;;11.19;47.53
21182;BME280;10749;46.296;7.524;2023-03-14T02:41:22;93787.50;;;11.11;47.19
21182;BME280;10749;46.296;7.524;2023-03-14T02:43:48;93782.03;;;11.13;47.61
21182;BME280;10749;46.296;7.524;2023-03-14T02:46:16;93772.25;;;11.13;47.32
21182;BME280;10749;46.296;7.524;2023-03-14T02:48:46;93778.13;;;11.15;47.33
21182;BME280;10749;46.296;7.524;2023-03-14T02:51:13;93776.34;;;11.09;47.44
21182;BME280;10749;46.296;7.524;2023-03-14T02:53:39;93785.13;;;10.90;47.62
21182;BME280;10749;46.296;7.524;2023-03-14T02:56:07;93777.63;;;10.80;47.25
21182;BME280;10749;46.296;7.524;2023-03-14T02:58:32;93781.69;;;10.83;47.70
21182;BME280;10749;46.296;7.524;2023-03-14T03:00:57;93793.25;;;10.95;47.87
21182;BME280;10749;46.296;7.524;2023-03-14T03:03:23;93795.91;;;11.01;47.91
21182;BME280;10749;46.296;7.524;2023-03-14T03:05:50;93799.56;;;10.94;48.03
21182;BME280;10749;46.296;7.524;2023-03-14T03:08:16;93794.88;;;10.89;48.20
21182;BME280;10749;46.296;7.524;2023-03-14T03:10:42;93793.09;;;10.83;48.16
21182;BME280;10749;46.296;7.524;2023-03-14T03:13:07;93791.66;;;10.74;48.56
21182;BME280;10749;46.296;7.524;2023-03-14T03:15:32;93791.88;;;10.66;48.34
21182;BME280;10749;46.296;7.524;2023-03-14T03:17:58;93801.44;;;10.74;48.37
21182;BME280;10749;46.296;7.524;2023-03-14T03:20:23;93805.72;;;10.68;48.59
21182;BME280;10749;46.296;7.524;2023-03-14T03:22:48;93809.78;;;10.71;48.77
21182;BME280;10749;46.296;7.524;2023-03-14T03:25:15;93810.19;;;10.74;48.39
21182;BME280;10749;46.296;7.524;2023-03-14T03:27:40;93806.53;;;10.88;48.56
21182;BME280;10749;46.296;7.524;2023-03-14T03:30:07;93797.97;;;10.93;48.53
21182;BME280;10749;46.296;7.524;2023-03-14T03:32:32;93787.97;;;11.01;48.43
21182;BME280;10749;46.296;7.524;2023-03-14T03:34:58;93780.00;;;11.08;48.62
21182;BME280;10749;46.296;7.524;2023-03-14T03:37:23;93760.44;;;11.02;48.72
21182;BME280;10749;46.296;7.524;2023-03-14T03:39:52;93748.41;;;11.06;48.53
21182;BME280;10749;46.296;7.524;2023-03-14T03:42:18;93743.31;;;11.11;48.50
21182;BME280;10749;46.296;7.524;2023-03-14T03:44:43;93736.38;;;11.10;48.82
21182;BME280;10749;46.296;7.524;2023-03-14T03:47:09;93728.28;;;11.05;48.88
21182;BME280;10749;46.296;7.524;2023-03-14T03:49:34;93733.56;;;11.05;48.69
21182;BME280;10749;46.296;7.524;2023-03-14T03:51:59;93720.16;;;11.00;48.78
21182;BME280;10749;46.296;7.524;2023-03-14T03:54:25;93704.69;;;10.91;49.20
21182;BME280;10749;46.296;7.524;2023-03-14T03:56:51;93693.16;;;10.72;48.99
21182;BME280;10749;46.296;7.524;2023-03-14T03:59:16;93686.50;;;10.37;49.05
21182;BME280;10749;46.296;7.524;2023-03-14T04:01:41;93691.19;;;10.28;49.46
21182;BME280;10749;46.296;7.524;2023-03-14T04:04:07;93688.94;;;10.45;49.67
21182;BME280;10749;46.296;7.524;2023-03-14T04:06:32;93691.34;;;10.53;49.22
21182;BME280;10749;46.296;7.524;2023-03-14T04:08:57;93675.91;;;10.50;49.54
21182;BME280;10749;46.296;7.524;2023-03-14T04:11:23;93670.44;;;10.45;49.77
21182;BME280;10749;46.296;7.524;2023-03-14T04:13:48;93662.72;;;10.43;49.72
21182;BME280;10749;46.296;7.524;2023-03-14T04:16:18;93661.66;;;10.51;49.65
21182;BME280;10749;46.296;7.524;2023-03-14T04:18:44;93653.50;;;10.52;49.31
21182;BME280;10749;46.296;7.524;2023-03-14T04:21:09;93652.97;;;10.31;49.64
21182;BME280;10749;46.296;7.524;2023-03-14T04:23:35;93638.13;;;10.16;49.87
21182;BME280;10749;46.296;7.524;2023-03-14T04:26:00;93643.63;;;10.22;49.92
21182;BME280;10749;46.296;7.524;2023-03-14T04:28:25;93645.84;;;10.38;49.81
21182;BME280;10749;46.296;7.524;2023-03-14T04:30:50;93636.25;;;10.43;49.83
21182;BME280;10749;46.296;7.524;2023-03-14T04:33:16;93641.13;;;10.40;50.06
21182;BME280;10749;46.296;7.524;2023-03-14T04:35:43;93631.63;;;10.26;50.45
21182;BME280;10749;46.296;7.524;2023-03-14T04:38:08;93632.41;;;10.33;50.51
21182;BME280;10749;46.296;7.524;2023-03-14T04:40:36;93634.81;;;10.41;50.41
21182;BME280;10749;46.296;7.524;2023-03-14T04:43:02;93637.28;;;10.42;50.34
21182;BME280;10749;46.296;7.524;2023-03-14T04:45:27;93636.06;;;10.38;50.52
21182;BME280;10749;46.296;7.524;2023-03-14T04:47:52;93638.53;;;10.20;50.35
21182;BME280;10749;46.296;7.524;2023-03-14T04:50:18;93636.53;;;9.89;50.89
21182;BME280;10749;46.296;7.524;2023-03-14T04:52:43;93623.91;;;9.85;50.44
21182;BME280;10749;46.296;7.524;2023-03-14T04:55:08;93618.00;;;9.83;50.70
21182;BME280;10749;46.296;7.524;2023-03-14T04:57:34;93616.56;;;10.06;50.77
21182;BME280;10749;46.296;7.524;2023-03-14T04:59:59;93616.56;;;10.19;50.91
21182;BME280;10749;46.296;7.524;2023-03-14T05:02:24;93617.38;;;10.27;50.72
21182;BME280;10749;46.296;7.524;2023-03-14T05:04:49;93609.22;;;10.35;50.95
21182;BME280;10749;46.296;7.524;2023-03-14T05:07:15;93607.16;;;10.37;50.88
21182;BME280;10749;46.296;7.524;2023-03-14T05:09:40;93606.38;;;10.30;50.81
21182;BME280;10749;46.296;7.524;2023-03-14T05:12:05;93594.19;;;10.29;50.69
21182;BME280;10749;46.296;7.524;2023-03-14T05:14:31;93583.00;;;10.27;50.84
21182;BME280;10749;46.296;7.524;2023-03-14T05:16:56;93580.75;;;10.24;50.82
21182;BME280;10749;46.296;7.524;2023-03-14T05:19:21;93584.84;;;10.19;50.75
21182;BME280;10749;46.296;7.524;2023-03-14T05:21:47;93572.66;;;10.18;50.96
21182;BME280;10749;46.296;7.524;2023-03-14T05:24:15;93551.09;;;10.08;50.17
21182;BME280;10749;46.296;7.524;2023-03-14T05:26:40;93560.88;;;10.01;50.31
21182;BME280;10749;46.296;7.524;2023-03-14T05:29:05;93549.50;;;9.88;50.91
21182;BME280;10749;46.296;7.524;2023-03-14T05:31:31;93539.78;;;9.75;50.69
21182;BME280;10749;46.296;7.524;2023-03-14T05:33:56;93538.75;;;9.69;51.09
21182;BME280;10749;46.296;7.524;2023-03-14T05:36:21;93545.06;;;9.75;51.22
21182;BME280;10749;46.296;7.524;2023-03-14T05:38:47;93551.34;;;9.87;51.08
21182;BME280;10749;46.296;7.524;2023-03-14T05:41:12;93550.75;;;9.85;50.94
21182;BME280;10749;46.296;7.524;2023-03-14T05:43:37;93553.16;;;9.87;51.15
21182;BME280;10749;46.296;7.524;2023-03-14T05:46:03;93541.38;;;9.83;50.97
21182;BME280;10749;46.296;7.524;2023-03-14T05:48:28;93538.78;;;9.76;51.46
21182;BME280;10749;46.296;7.524;2023-03-14T05:50:57;93542.84;;;9.72;51.46
21182;BME280;10749;46.296;7.524;2023-03-14T05:53:22;93542.41;;;9.75;51.42
21182;BME280;10749;46.296;7.524;2023-03-14T05:55:53;93542.63;;;9.80;51.27
21182;BME280;10749;46.296;7.524;2023-03-14T05:58:19;93538.78;;;9.76;51.78
21182;BME280;10749;46.296;7.524;2023-03-14T06:00:44;93536.13;;;9.76;51.64
21182;BME280;10749;46.296;7.524;2023-03-14T06:03:10;93528.19;;;9.69;51.90
21182;BME280;10749;46.296;7.524;2023-03-14T06:05:35;93529.22;;;9.75;51.76
21182;BME280;10749;46.296;7.524;2023-03-14T06:08:00;93523.91;;;9.82;51.62
21182;BME280;10749;46.296;7.524;2023-03-14T06:10:26;93518.63;;;9.88;51.47
21182;BME280;10749;46.296;7.524;2023-03-14T06:12:51;93525.13;;;9.79;51.60
21182;BME280;10749;46.296;7.524;2023-03-14T06:15:16;93525.38;;;9.64;51.69
21182;BME280;10749;46.296;7.524;2023-03-14T06:17:41;93529.22;;;9.62;51.55
21182;BME280;10749;46.296;7.524;2023-03-14T06:20:08;93538.16;;;9.74;51.95
21182;BME280;10749;46.296;7.524;2023-03-14T06:22:33;93538.13;;;9.87;51.70
21182;BME280;10749;46.296;7.524;2023-03-14T06:24:59;93538.13;;;9.87;51.91
21182;BME280;10749;46.296;7.524;2023-03-14T06:27:24;93536.91;;;9.96;52.06
21182;BME280;10749;46.296;7.524;2023-03-14T06:29:49;93547.03;;;9.99;52.05
21182;BME280;10749;46.296;7.524;2023-03-14T06:32:14;93550.31;;;10.01;52.17
21182;BME280;10749;46.296;7.524;2023-03-14T06:34:40;93552.72;;;10.09;52.00
21182;BME280;10749;46.296;7.524;2023-03-14T06:37:06;93563.28;;;10.16;51.93
21182;BME280;10749;46.296;7.524;2023-03-14T06:39:31;93567.53;;;10.24;52.04
21182;BME280;10749;46.296;7.524;2023-03-14T06:41:56;93565.50;;;10.26;51.90
21182;BME280;10749;46.296;7.524;2023-03-14T06:44:22;93579.16;;;10.23;51.79
21182;BME280;10749;46.296;7.524;2023-03-14T06:46:47;93573.44;;;10.12;51.84
21182;BME280;10749;46.296;7.524;2023-03-14T06:49:12;93578.75;;;10.06;52.20
21182;BME280;10749;46.296;7.524;2023-03-14T06:51:37;93583.63;;;10.02;51.98
21182;BME280;10749;46.296;7.524;2023-03-14T06:54:03;93582.03;;;10.01;51.94
21182;BME280;10749;46.296;7.524;2023-03-14T06:56:28;93582.00;;;10.08;52.12
21182;BME280;10749;46.296;7.524;2023-03-14T06:58:53;93595.84;;;10.16;52.03
21182;BME280;10749;46.296;7.524;2023-03-14T07:01:24;93594.00;;;10.17;52.24
21182;BME280;10749;46.296;7.524;2023-03-14T07:03:50;93594.78;;;10.31;52.34
21182;BME280;10749;46.296;7.524;2023-03-14T07:06:15;93606.34;;;10.43;52.11
21182;BME280;10749;46.296;7.524;2023-03-14T07:08:41;93593.09;;;10.49;51.98
21182;BME280;10749;46.296;7.524;2023-03-14T07:11:07;93603.81;;;10.68;52.11
21182;BME280;10749;46.296;7.524;2023-03-14T07:13:32;93614.75;;;10.84;52.09
21182;BME280;10749;46.296;7.524;2023-03-14T07:15:57;93610.59;;;10.95;51.70
21182;BME280;10749;46.296;7.524;2023-03-14T07:18:23;93627.50;;;11.00;51.83
21182;BME280;10749;46.296;7.524;2023-03-14T07:20:48;93637.47;;;10.98;51.73
21182;BME280;10749;46.296;7.524;2023-03-14T07:23:13;93637.91;;;10.95;51.67
21182;BME280;10749;46.296;7.524;2023-03-14T07:25:38;93652.56;;;10.91;51.35
21182;BME280;10749;46.296;7.524;2023-03-14T07:28:05;93651.78;;;10.84;51.63
21182;BME280;10749;46.296;7.524;2023-03-14T07:30:30;93652.19;;;10.81;51.53
21182;BME280;10749;46.296;7.524;2023-03-14T07:32:56;93662.88;;;10.48;52.07
21182;BME280;10749;46.296;7.524;2023-03-14T07:35:21;93667.81;;;10.32;52.33
21182;BME280;10749;46.296;7.524;2023-03-14T07:37:47;93677.56;;;10.31;52.19
21182;BME280;10749;46.296;7.524;2023-03-14T07:40:12;93682.84;;;9.98;53.25
21182;BME280;10749;46.296;7.524;2023-03-14T07:42:41;93706.03;;;9.90;53.04
21182;BME280;10749;46.296;7.524;2023-03-14T07:45:07;93705.22;;;9.96;52.98
21182;BME280;10749;46.296;7.524;2023-03-14T07:47:32;93693.03;;;10.14;53.37
21182;BME280;10749;46.296;7.524;2023-03-14T07:49:57;93703.22;;;10.31;52.86
21182;BME280;10749;46.296;7.524;2023-03-14T07:52:23;93719.47;;;10.41;52.52
21182;BME280;10749;46.296;7.524;2023-03-14T07:54:55;93711.72;;;10.46;52.17
21182;BME280;10749;46.296;7.524;2023-03-14T07:57:21;93715.78;;;10.48;52.60
21182;BME280;10749;46.296;7.524;2023-03-14T07:59:46;93716.19;;;10.52;52.40
21182;BME280;10749;46.296;7.524;2023-03-14T08:02:12;93722.91;;;10.54;52.35
21182;BME280;10749;46.296;7.524;2023-03-14T08:04:38;93719.88;;;10.51;52.61
21182;BME280;10749;46.296;7.524;2023-03-14T08:07:04;93725.94;;;10.58;52.71
21182;BME280;10749;46.296;7.524;2023-03-14T08:09:29;93722.06;;;10.60;52.55
21182;BME280;10749;46.296;7.524;2023-03-14T08:11:55;93718.00;;;10.64;52.56
21182;BME280;10749;46.296;7.524;2023-03-14T08:14:20;93719.00;;;10.70;52.36
21182;BME280;10749;46.296;7.524;2023-03-14T08:16:45;93717.75;;;10.73;52.72
21182;BME280;10749;46.296;7.524;2023-03-14T08:19:11;93721.22;;;10.73;52.75
21182;BME280;10749;46.296;7.524;2023-03-14T08:21:36;93724.69;;;10.80;52.78
21182;BME280;10749;46.296;7.524;2023-03-14T08:24:02;93714.94;;;10.68;52.67
21182;BME280;10749;46.296;7.524;2023-03-14T08:26:27;93729.41;;;10.52;52.79
21182;BME280;10749;46.296;7.524;2023-03-14T08:28:52;93730.22;;;10.52;52.92
21182;BME280;10749;46.296;7.524;2023-03-14T08:31:18;93720.44;;;10.66;52.83
21182;BME280;10749;46.296;7.524;2023-03-14T08:33:43;93718.19;;;10.70;53.10
21182;BME280;10749;46.296;7.524;2023-03-14T08:36:08;93723.09;;;10.66;52.98
21182;BME280;10749;46.296;7.524;2023-03-14T08:38:35;93721.44;;;10.65;53.04
21182;BME280;10749;46.296;7.524;2023-03-14T08:41:01;93716.59;;;10.49;53.16
21182;BME280;10749;46.296;7.524;2023-03-14T08:43:27;93719.06;;;10.37;53.13
21182;BME280;10749;46.296;7.524;2023-03-14T08:45:53;93719.03;;;10.44;53.36
21182;BME280;10749;46.296;7.524;2023-03-14T08:48:19;93725.16;;;10.51;53.47
21182;BME280;10749;46.296;7.524;2023-03-14T08:50:45;93722.69;;;10.56;53.33
21182;BME280;10749;46.296;7.524;2023-03-14T08:53:10;93727.19;;;10.55;53.81
21182;BME280;10749;46.296;7.524;2023-03-14T08:55:35;93727.56;;;10.72;53.71
21182;BME280;10749;46.296;7.524;2023-03-14T08:58:01;93729.34;;;10.91;53.41
21182;BME280;10749;46.296;7.524;2023-03-14T09:00:26;93731.09;;;11.10;53.42
21182;BME280;10749;46.296;7.524;2023-03-14T09:02:52;93730.63;;;11.27;53.46
21182;BME280;10749;46.296;7.524;2023-03-14T09:05:17;93731.81;;;11.37;53.58
21182;BME280;10749;46.296;7.524;2023-03-14T09:07:43;93728.53;;;11.42;53.25
21182;BME280;10749;46.296;7.524;2023-03-14T09:10:09;93746.50;;;11.33;53.52
21182;BME280;10749;46.296;7.524;2023-03-14T09:12:35;93747.69;;;11.37;53.51
21182;BME280;10749;46.296;7.524;2023-03-14T09:15:00;93745.88;;;11.31;53.12
21182;BME280;10749;46.296;7.524;2023-03-14T09:17:26;93741.63;;;11.30;53.25
21182;BME280;10749;46.296;7.524;2023-03-14T09:19:51;93746.50;;;11.33;53.18
21182;BME280;10749;46.296;7.524;2023-03-14T09:22:16;93754.00;;;11.36;53.35
21182;BME280;10749;46.296;7.524;2023-03-14T09:24:42;93752.19;;;11.37;53.04
21182;BME280;10749;46.296;7.524;2023-03-14T09:27:08;93752.56;;;11.40;53.32
21182;BME280;10749;46.296;7.524;2023-03-14T09:29:34;93740.31;;;11.46;53.36
21182;BME280;10749;46.296;7.524;2023-03-14T09:31:59;93746.81;;;11.50;53.06
21182;BME280;10749;46.296;7.524;2023-03-14T09:34:25;93748.84;;;11.54;53.15
21182;BME280;10749;46.296;7.524;2023-03-14T09:36:51;93745.56;;;11.59;53.18
21182;BME280;10749;46.296;7.524;2023-03-14T09:39:16;93745.13;;;11.62;52.97
21182;BME280;10749;46.296;7.524;2023-03-14T09:41:47;93756.94;;;11.66;52.92
21182;BME280;10749;46.296;7.524;2023-03-14T09:44:27;93761.78;;;11.69;53.16
21182;BME280;10749;46.296;7.524;2023-03-14T09:46:56;93765.06;;;11.71;52.81
21182;BME280;10749;46.296;7.524;2023-03-14T09:49:36;93765.13;;;11.58;53.48
21182;BME280;10749;46.296;7.524;2023-03-14T09:52:17;93761.91;;;11.43;53.29
21182;BME280;10749;46.296;7.524;2023-03-14T09:54:49;93768.03;;;11.43;53.42
21182;BME280;10749;46.296;7.524;2023-03-14T09:57:17;93771.69;;;11.49;53.83
21182;BME280;10749;46.296;7.524;2023-03-14T09:59:45;93775.97;;;11.50;53.76
21182;BME280;10749;46.296;7.524;2023-03-14T10:02:14;93773.50;;;11.55;53.79
21182;BME280;10749;46.296;7.524;2023-03-14T10:04:40;93784.25;;;11.60;53.97
21182;BME280;10749;46.296;7.524;2023-03-14T10:07:15;93786.28;;;11.65;53.61
21182;BME280;10749;46.296;7.524;2023-03-14T10:09:43;93785.88;;;11.68;53.36
21182;BME280;10749;46.296;7.524;2023-03-14T10:12:09;93788.31;;;11.69;53.54
21182;BME280;10749;46.296;7.524;2023-03-14T10:14:37;93798.53;;;11.66;53.39
21182;BME280;10749;46.296;7.524;2023-03-14T10:17:11;93807.72;;;11.56;53.65
21182;BME280;10749;46.296;7.524;2023-03-14T10:19:51;93811.63;;;11.54;53.54
21182;BME280;10749;46.296;7.524;2023-03-14T10:22:17;93817.94;;;11.53;53.97
21182;BME280;10749;46.296;7.524;2023-03-14T10:25:06;93812.63;;;11.53;53.67
21182;BME280;10749;46.296;7.524;2023-03-14T10:27:44;93811.84;;;11.46;53.95
21182;BME280;10749;46.296;7.524;2023-03-14T10:30:34;93808.78;;;11.49;53.92
21182;BME280;10749;46.296;7.524;2023-03-14T10:33:10;93819.38;;;11.49;53.86
21182;BME280;10749;46.296;7.524;2023-03-14T10:35:36;93826.50;;;11.55;53.92
21182;BME280;10749;46.296;7.524;2023-03-14T10:38:03;93823.03;;;11.54;53.73
21182;BME280;10749;46.296;7.524;2023-03-14T10:40:31;93837.69;;;11.57;53.57
21182;BME280;10749;46.296;7.524;2023-03-14T10:43:03;93837.50;;;11.52;53.68
21182;BME280;10749;46.296;7.524;2023-03-14T10:45:38;93835.28;;;11.49;53.63
21182;BME280;10749;46.296;7.524;2023-03-14T10:50:48;93843.06;;;11.31;53.56
21182;BME280;10749;46.296;7.524;2023-03-14T10:53:17;93851.22;;;11.23;54.37
21182;BME280;10749;46.296;7.524;2023-03-14T10:55:44;93854.50;;;11.25;54.25
21182;BME280;10749;46.296;7.524;2023-03-14T10:58:26;93862.06;;;11.15;54.89
21182;BME280;10749;46.296;7.524;2023-03-14T11:01:00;93859.59;;;11.26;54.26
21182;BME280;10749;46.296;7.524;2023-03-14T11:03:31;93869.16;;;11.34;53.68
21182;BME280;10749;46.296;7.524;2023-03-14T11:06:25;93874.84;;;11.31;53.94
21182;BME280;10749;46.296;7.524;2023-03-14T11:09:13;93873.31;;;10.84;55.20
21182;BME280;10749;46.296;7.524;2023-03-14T11:11:44;93877.16;;;11.01;54.68
21182;BME280;10749;46.296;7.524;2023-03-14T11:14:36;93885.09;;;11.07;54.52
21182;BME280;10749;46.296;7.524;2023-03-14T11:17:24;93894.44;;;11.17;54.51
21182;BME280;10749;46.296;7.524;2023-03-14T11:22:54;93889.94;;;11.24;54.08
21182;BME280;10749;46.296;7.524;2023-03-14T11:28:37;93890.97;;;11.29;54.62
21182;BME280;10749;46.296;7.524;2023-03-14T11:33:39;93904.59;;;11.33;54.58
21182;BME280;10749;46.296;7.524;2023-03-14T11:36:12;93897.06;;;11.36;54.34
21182;BME280;10749;46.296;7.524;2023-03-14T11:38:46;93905.41;;;11.40;54.54
21182;BME280;10749;46.296;7.524;2023-03-14T11:41:19;93896.00;;;11.44;54.66
21182;BME280;10749;46.296;7.524;2023-03-14T11:43:54;93907.81;;;11.48;54.37
21182;BME280;10749;46.296;7.524;2023-03-14T11:46:27;93909.84;;;11.52;54.34
21182;BME280;10749;46.296;7.524;2023-03-14T11:51:59;93909.81;;;11.66;54.25
21182;BME280;10749;46.296;7.524;2023-03-14T11:54:34;93914.34;;;11.72;54.45
21182;BME280;10749;46.296;7.524;2023-03-14T11:57:10;93915.53;;;11.69;53.97
21182;BME280;10749;46.296;7.524;2023-03-14T11:59:59;93920.03;;;11.75;53.68
21182;BME280;10749;46.296;7.524;2023-03-14T12:10:49;93934.75;;;11.32;55.92
21182;BME280;10749;46.296;7.524;2023-03-14T12:13:17;93936.19;;;11.28;55.85
21182;BME280;10749;46.296;7.524;2023-03-14T12:15:57;93952.69;;;11.10;57.10
21182;BME280;10749;46.296;7.524;2023-03-14T12:18:28;93938.47;;;11.18;56.88
21182;BME280;10749;46.296;7.524;2023-03-14T12:20:57;93944.56;;;11.25;57.54
21182;BME280;10749;46.296;7.524;2023-03-14T12:23:24;93949.63;;;11.33;57.16
21182;BME280;10749;46.296;7.524;2023-03-14T12:26:08;93955.09;;;11.57;57.19
21182;BME280;10749;46.296;7.524;2023-03-14T12:28:39;93949.34;;;11.80;55.87
21182;BME280;10749;46.296;7.524;2023-03-14T12:49:49;93938.19;;;11.39;56.53
21182;BME280;10749;46.296;7.524;2023-03-14T12:52:32;93932.34;;;11.10;55.68
21182;BME280;10749;46.296;7.524;2023-03-14T12:55:21;93955.13;;;10.98;55.35
21182;BME280;10749;46.296;7.524;2023-03-14T12:58:02;93937.63;;;11.04;55.22
21182;BME280;10749;46.296;7.524;2023-03-14T13:00:32;93941.88;;;11.31;55.26
21182;BME280;10749;46.296;7.524;2023-03-14T13:03:15;93933.69;;;11.72;55.15
21182;BME280;10749;46.296;7.524;2023-03-14T13:06:12;93945.31;;;11.51;55.92
21182;BME280;10749;46.296;7.524;2023-03-14T13:08:44;93939.63;;;11.35;56.86
21182;BME280;10749;46.296;7.524;2023-03-14T13:11:16;93942.72;;;11.19;57.49
21182;BME280;10749;46.296;7.524;2023-03-14T13:13:49;93948.22;;;11.24;57.08
21182;BME280;10749;46.296;7.524;2023-03-14T13:16:18;93955.94;;;11.19;56.08
21182;BME280;10749;46.296;7.524;2023-03-14T13:18:47;93946.78;;;11.28;56.14
21182;BME280;10749;46.296;7.524;2023-03-14T13:21:18;93936.59;;;11.25;55.51
21182;BME280;10749;46.296;7.524;2023-03-14T13:23:59;93936.59;;;11.25;54.09
21182;BME280;10749;46.296;7.524;2023-03-14T13:26:40;93934.16;;;11.36;53.78
21182;BME280;10749;46.296;7.524;2023-03-14T13:29:19;93947.78;;;11.53;54.19
21182;BME280;10749;46.296;7.524;2023-03-14T13:31:47;93955.13;;;11.44;53.93
21182;BME280;10749;46.296;7.524;2023-03-14T13:34:13;93957.34;;;11.47;54.12
21182;BME280;10749;46.296;7.524;2023-03-14T13:36:39;93961.66;;;11.55;54.05
21182;BME280;10749;46.296;7.524;2023-03-14T13:39:10;93967.75;;;11.75;53.15
21182;BME280;10749;46.296;7.524;2023-03-14T13:41:38;93968.56;;;11.76;52.74
21182;BME280;10749;46.296;7.524;2023-03-14T13:44:07;93960.63;;;11.76;53.00
21182;BME280;10749;46.296;7.524;2023-03-14T13:46:34;93970.53;;;12.00;52.82
21182;BME280;10749;46.296;7.524;2023-03-14T13:49:05;93967.06;;;11.93;51.92
21182;BME280;10749;46.296;7.524;2023-03-14T13:51:31;93958.69;;;12.02;51.36
21182;BME280;10749;46.296;7.524;2023-03-14T13:54:00;93961.72;;;12.13;51.57
21182;BME280;10749;46.296;7.524;2023-03-14T13:56:32;93968.19;;;12.30;51.54
21182;BME280;10749;46.296;7.524;2023-03-14T13:58:58;93978.16;;;12.28;50.78